Terminal Aerodrome Forecast
Issued by NWS Des Moines, IA

Home | Current Version | Previous Version | Text Only | Print | Product List | Glossary On
Versions: 1 2 3 4 5 6 7 8 9 10 11 12 13 14 15 16 17 18 19 20 21 22 23 24 25 26 27 28 29 30 31 32 33 34 35
000
FTUS43 KDMX 241203 AAA
TAFDSM
TAF AMD
KDSM 241203Z 2412/2512 19006KT P6SM SCT025 BKN080
      TEMPO 2412/2414 5SM BR
     FM250000 16007KT P6SM SCT040 OVC100
     FM250600 19007KT P6SM VCTS BKN070CB
     FM251100 13007KT 4SM -TSRA SCT025 OVC040CB=

USA.gov is the U.S. government's official web portal to all federal, state and local government web resources and services.